createdAt,value
2023-01-14T00:01:14.560Z,95632.00
2023-01-14T00:03:43.140Z,95635.69
2023-01-14T00:06:14.115Z,95636.13
2023-01-14T00:08:42.723Z,95606.72
2023-01-14T00:11:12.284Z,95573.16
2023-01-14T00:13:41.758Z,95630.19
2023-01-14T00:16:13.468Z,95625.88
2023-01-14T00:18:42.444Z,95637.69
2023-01-14T00:21:14.906Z,95627.22
2023-01-14T00:23:43.803Z,95579.28
2023-01-14T00:26:14.705Z,95620.13
2023-01-14T00:28:43.564Z,95629.16
2023-01-14T00:31:15.710Z,95618.09
2023-01-14T00:33:44.372Z,95620.53
2023-01-14T00:36:17.354Z,95621.00
2023-01-14T00:38:46.829Z,95615.84
2023-01-14T00:41:16.240Z,95610.50
2023-01-14T00:43:46.233Z,95625.19
2023-01-14T00:46:16.100Z,95617.09
2023-01-14T00:48:44.645Z,95618.97
2023-01-14T00:51:15.198Z,95618.91
2023-01-14T00:53:43.943Z,95594.38
2023-01-14T00:56:12.052Z,95617.34
2023-01-14T00:58:40.421Z,95560.97
2023-01-14T01:01:08.475Z,95615.47
2023-01-14T01:03:41.188Z,95622.09
2023-01-14T01:06:09.340Z,95625.00
2023-01-14T01:08:38.932Z,95623.94
2023-01-14T01:11:07.067Z,95621.97
2023-01-14T01:13:36.721Z,95610.84
2023-01-14T01:16:08.370Z,95609.47
2023-01-14T01:18:36.353Z,95525.06
2023-01-14T01:21:05.776Z,95616.41
2023-01-14T01:23:34.054Z,95615.63
2023-01-14T01:26:05.627Z,95613.50
2023-01-14T01:28:34.480Z,95611.41
2023-01-14T01:31:03.197Z,95609.34
2023-01-14T01:33:31.462Z,95583.13
2023-01-14T01:36:03.497Z,95566.66
2023-01-14T01:38:31.726Z,95600.59
2023-01-14T01:41:00.761Z,95596.03
2023-01-14T01:43:32.860Z,95600.53
2023-01-14T01:46:01.456Z,95598.00
2023-01-14T01:48:33.911Z,95574.16
2023-01-14T01:51:06.848Z,95529.94
2023-01-14T01:53:37.452Z,95582.19
2023-01-14T01:56:06.759Z,95588.75
2023-01-14T01:58:38.163Z,95576.47
2023-01-14T02:01:06.578Z,95582.38
2023-01-14T02:03:39.044Z,95580.81
2023-01-14T02:06:08.128Z,95562.91
2023-01-14T02:08:40.521Z,95539.94
2023-01-14T02:11:26.192Z,95582.56
2023-01-14T02:14:05.106Z,95582.97
2023-01-14T02:16:46.847Z,95585.34
2023-01-14T02:19:25.299Z,95579.56
2023-01-14T02:22:09.978Z,95586.47
2023-01-14T02:25:11.441Z,95597.34
2023-01-14T02:27:48.926Z,95589.69
2023-01-14T02:30:51.395Z,95589.03
2023-01-14T02:33:35.892Z,95588.47
2023-01-14T02:36:10.896Z,95552.63
2023-01-14T02:38:45.548Z,95568.94
2023-01-14T02:41:19.754Z,95581.97
2023-01-14T02:44:08.452Z,95582.25
2023-01-14T02:46:43.106Z,95582.38
2023-01-14T02:49:16.447Z,95585.72
2023-01-14T02:51:46.015Z,95586.28
2023-01-14T02:54:14.038Z,95585.94
2023-01-14T02:56:42.184Z,95578.91
2023-01-14T02:59:25.096Z,95587.56
2023-01-14T03:02:23.760Z,95586.47
2023-01-14T03:05:06.564Z,95593.41
2023-01-14T03:07:44.530Z,95585.97
2023-01-14T03:10:19.769Z,95567.94
2023-01-14T03:12:51.661Z,95540.03
2023-01-14T03:15:26.731Z,95589.94
2023-01-14T03:18:00.618Z,95585.47
2023-01-14T03:20:32.981Z,95594.63
2023-01-14T03:23:06.722Z,95591.97
2023-01-14T03:25:38.030Z,95593.47
2023-01-14T03:28:08.807Z,95577.31
2023-01-14T03:30:41.433Z,95584.97
2023-01-14T03:33:14.974Z,95576.94
2023-01-14T03:35:45.747Z,95540.97
2023-01-14T03:38:19.054Z,95582.59
2023-01-14T03:40:51.013Z,95583.03
2023-01-14T03:43:26.053Z,95575.22
2023-01-14T03:45:55.121Z,95580.13
2023-01-14T03:48:24.604Z,95576.81
2023-01-14T03:50:59.650Z,95585.09
2023-01-14T03:53:34.571Z,95577.63
2023-01-14T03:56:12.530Z,95581.47
2023-01-14T03:58:47.767Z,95579.94
2023-01-14T04:01:22.074Z,95572.50
2023-01-14T04:03:52.502Z,95558.31
2023-01-14T04:06:20.527Z,95571.88
2023-01-14T04:08:48.848Z,95559.88
2023-01-14T04:11:16.904Z,95561.59
2023-01-14T04:14:02.134Z,95567.06
2023-01-14T04:16:30.139Z,95567.63
2023-01-14T04:18:59.416Z,95560.97
2023-01-14T04:21:27.340Z,95563.84
2023-01-14T04:23:55.260Z,95564.66
2023-01-14T04:26:24.359Z,95560.53
2023-01-14T04:28:52.208Z,95568.06
2023-01-14T04:31:20.210Z,95567.50
2023-01-14T04:33:48.226Z,95565.75
2023-01-14T04:36:17.604Z,95545.81
2023-01-14T04:38:45.661Z,95559.50
2023-01-14T04:41:33.893Z,95540.59
2023-01-14T04:44:01.009Z,95551.75
2023-01-14T04:46:29.903Z,95575.53
2023-01-14T04:48:57.828Z,95559.50
2023-01-14T04:51:27.136Z,95517.59
2023-01-14T04:53:55.584Z,95554.69
2023-01-14T04:56:23.583Z,95553.63
2023-01-14T04:58:51.930Z,95554.09
2023-01-14T05:01:19.906Z,95558.72
2023-01-14T05:03:47.999Z,95566.19
2023-01-14T05:06:15.958Z,95560.97
2023-01-14T05:08:46.177Z,95570.78
2023-01-14T05:11:14.161Z,95562.38
2023-01-14T05:13:42.100Z,95571.47
2023-01-14T05:16:10.183Z,95559.56
2023-01-14T05:18:38.154Z,95572.69
2023-01-14T05:21:07.123Z,95565.66
2023-01-14T05:23:35.076Z,95569.09
2023-01-14T05:26:04.421Z,95569.53
2023-01-14T05:28:32.369Z,95566.38
2023-01-14T05:31:00.397Z,95575.72
2023-01-14T05:33:28.384Z,95579.75
2023-01-14T05:35:57.754Z,95578.66
2023-01-14T05:38:26.186Z,95572.66
2023-01-14T05:40:54.561Z,95517.31
2023-01-14T05:43:41.383Z,95569.50
2023-01-14T05:46:11.215Z,95550.41
2023-01-14T05:48:39.194Z,95573.22
2023-01-14T05:51:08.055Z,95578.00
2023-01-14T05:53:36.062Z,95584.66
2023-01-14T05:56:04.036Z,95586.25
2023-01-14T05:58:33.288Z,95596.75
2023-01-14T06:01:21.554Z,95591.41
2023-01-14T06:04:06.712Z,95577.50
2023-01-14T06:06:37.911Z,95577.78
2023-01-14T06:09:08.601Z,95576.75
2023-01-14T06:11:38.013Z,95579.34
2023-01-14T06:14:07.596Z,95579.88
2023-01-14T06:16:40.754Z,95551.03
2023-01-14T06:19:10.158Z,95597.50
2023-01-14T06:21:38.772Z,95573.13
2023-01-14T06:24:07.561Z,95573.88
2023-01-14T06:26:36.974Z,95571.09
2023-01-14T06:29:09.326Z,95589.81
2023-01-14T06:31:39.316Z,95589.78
2023-01-14T06:34:07.574Z,95585.22
2023-01-14T06:36:37.576Z,95592.91
2023-01-14T06:39:05.876Z,95529.06
2023-01-14T06:41:33.821Z,95589.81
2023-01-14T06:44:02.223Z,95595.22
2023-01-14T06:46:31.713Z,95594.19
2023-01-14T06:48:59.753Z,95581.91
2023-01-14T06:51:27.808Z,95593.47
2023-01-14T06:53:55.895Z,95539.44
2023-01-14T06:56:23.934Z,95593.50
2023-01-14T06:58:52.324Z,95602.03
2023-01-14T07:01:20.640Z,95546.06
2023-01-14T07:03:50.831Z,95606.06
2023-01-14T07:06:18.799Z,95605.47
2023-01-14T07:08:47.409Z,95612.88
2023-01-14T07:11:15.410Z,95584.75
2023-01-14T07:13:43.352Z,95611.59
2023-01-14T07:16:11.279Z,95617.81
2023-01-14T07:18:39.420Z,95605.19
2023-01-14T07:21:08.750Z,95596.75
2023-01-14T07:23:36.885Z,95619.41
2023-01-14T07:26:05.757Z,95615.56
2023-01-14T07:28:35.317Z,95623.78
2023-01-14T07:31:07.644Z,95603.22
2023-01-14T07:33:35.981Z,95611.78
2023-01-14T07:36:04.397Z,95624.06
2023-01-14T07:38:33.905Z,95629.41
2023-01-14T07:41:01.926Z,95622.41
2023-01-14T07:43:30.611Z,95614.47
2023-01-14T07:46:02.008Z,95627.81
2023-01-14T07:48:30.327Z,95613.00
2023-01-14T07:50:58.925Z,95625.31
2023-01-14T07:53:27.146Z,95636.88
2023-01-14T07:55:56.876Z,95637.81
2023-01-14T07:58:25.513Z,95636.56
2023-01-14T08:00:54.494Z,95632.28
2023-01-14T08:03:22.713Z,95616.75
2023-01-14T08:05:50.986Z,95634.19
2023-01-14T08:08:19.191Z,95622.41
2023-01-14T08:10:47.349Z,95626.69
2023-01-14T08:13:16.788Z,95644.28
2023-01-14T08:15:44.890Z,95639.91
2023-01-14T08:18:12.981Z,95642.72
2023-01-14T08:20:41.012Z,95616.28
2023-01-14T08:23:09.231Z,95640.59
2023-01-14T08:25:37.218Z,95648.97
2023-01-14T08:28:06.752Z,95644.44
2023-01-14T08:30:36.209Z,95650.22
2023-01-14T08:33:04.220Z,95644.66
2023-01-14T08:35:32.223Z,95637.63
2023-01-14T08:38:00.257Z,95647.50
2023-01-14T08:40:28.377Z,95644.53
2023-01-14T08:42:56.487Z,95609.94
2023-01-14T08:45:24.539Z,95655.06
2023-01-14T08:47:54.093Z,95653.81
2023-01-14T08:50:22.395Z,95664.94
2023-01-14T08:52:50.318Z,95663.72
2023-01-14T08:55:18.664Z,95632.19
2023-01-14T08:57:46.800Z,95644.53
2023-01-14T09:00:16.267Z,95647.56
2023-01-14T09:02:44.146Z,95621.63
2023-01-14T09:05:14.313Z,95604.44
2023-01-14T09:07:59.461Z,95640.94
2023-01-14T09:10:59.978Z,95639.09
2023-01-14T09:13:45.473Z,95628.69
2023-01-14T09:16:33.958Z,95613.28
2023-01-14T09:19:02.125Z,95624.84
2023-01-14T09:21:31.863Z,95582.22
2023-01-14T09:23:59.912Z,95622.09
2023-01-14T09:26:27.923Z,95616.59
2023-01-14T09:28:55.906Z,95612.34
2023-01-14T09:31:23.808Z,95488.19
2023-01-14T09:33:51.731Z,95507.34
2023-01-14T09:36:20.742Z,95552.16
2023-01-14T09:38:50.221Z,95612.63
2023-01-14T09:41:31.366Z,95617.66
2023-01-14T09:44:00.157Z,95615.31
2023-01-14T09:46:29.302Z,95607.03
2023-01-14T09:48:59.234Z,95526.28
2023-01-14T09:51:52.091Z,95599.03
2023-01-14T09:54:29.958Z,95575.91
2023-01-14T09:57:08.688Z,95602.41
2023-01-14T09:59:45.275Z,95604.88
2023-01-14T10:02:20.899Z,95577.06
2023-01-14T10:05:04.010Z,95583.28
2023-01-14T10:07:33.306Z,95587.56
2023-01-14T10:10:05.068Z,95584.19
2023-01-14T10:12:37.921Z,95579.75
2023-01-14T10:15:29.996Z,95591.00
2023-01-14T10:18:02.954Z,95557.47
2023-01-14T10:20:36.260Z,95574.06
2023-01-14T10:23:12.734Z,95583.38
2023-01-14T10:25:48.086Z,95553.50
2023-01-14T10:28:22.741Z,95581.56
2023-01-14T10:30:52.188Z,95582.56
2023-01-14T10:33:22.348Z,95578.16
2023-01-14T10:35:56.392Z,95570.59
2023-01-14T10:38:27.182Z,95448.31
2023-01-14T10:41:11.766Z,95393.22
2023-01-14T10:43:46.878Z,95542.66
2023-01-14T10:46:20.666Z,95515.31
2023-01-14T10:48:54.081Z,95552.59
2023-01-14T10:51:36.810Z,95563.34
2023-01-14T10:54:13.617Z,95557.69
2023-01-14T10:56:50.124Z,95553.47
2023-01-14T10:59:41.148Z,95531.94
2023-01-14T11:02:22.961Z,95425.25
2023-01-14T11:04:52.214Z,95404.34
2023-01-14T11:07:26.859Z,95502.91
2023-01-14T11:09:56.672Z,95539.06
2023-01-14T11:12:31.304Z,95538.13
2023-01-14T11:15:00.047Z,95537.38
2023-01-14T11:17:29.976Z,95514.59
2023-01-14T11:20:31.264Z,95533.94
2023-01-14T11:23:01.949Z,95542.34
2023-01-14T11:25:30.925Z,95531.56
2023-01-14T11:28:03.482Z,95492.03
2023-01-14T11:30:31.641Z,95543.63
2023-01-14T11:33:00.993Z,95549.78
2023-01-14T11:35:34.105Z,95549.31
2023-01-14T11:38:07.224Z,95500.88
2023-01-14T11:40:55.032Z,95522.09
2023-01-14T11:43:26.617Z,95531.41
2023-01-14T11:46:07.206Z,95530.41
2023-01-14T11:48:35.251Z,95549.38
2023-01-14T11:51:05.023Z,95521.94
2023-01-14T11:53:45.818Z,95548.56
2023-01-14T11:56:18.734Z,95552.47
2023-01-14T11:58:48.405Z,95558.78
2023-01-14T12:01:24.617Z,95545.41
2023-01-14T12:04:01.958Z,95551.50
2023-01-14T12:06:33.859Z,95350.34
2023-01-14T12:09:07.174Z,95548.00
2023-01-14T12:11:55.448Z,95546.41
2023-01-14T12:14:47.553Z,95543.91
2023-01-14T12:17:26.327Z,95546.84
2023-01-14T12:20:00.400Z,95550.25
2023-01-14T12:22:34.307Z,95551.66
2023-01-14T12:25:13.207Z,95535.59
2023-01-14T12:27:50.796Z,95543.66
2023-01-14T12:30:34.614Z,95520.22
2023-01-14T12:33:07.242Z,95537.09
2023-01-14T12:35:42.167Z,95540.44
2023-01-14T12:38:42.805Z,95546.41
2023-01-14T12:41:31.212Z,95552.94
2023-01-14T12:44:19.147Z,95539.28
2023-01-14T12:46:48.820Z,95550.81
2023-01-14T12:49:16.988Z,95538.44
2023-01-14T12:51:46.294Z,95556.16
2023-01-14T12:54:26.294Z,95556.31
2023-01-14T12:56:57.227Z,95555.22
2023-01-14T12:59:31.287Z,95560.13
2023-01-14T13:02:03.277Z,95563.09
2023-01-14T13:04:36.675Z,95511.75
2023-01-14T13:07:07.023Z,95546.63
2023-01-14T13:09:45.132Z,95572.06
2023-01-14T13:12:25.046Z,95566.53
2023-01-14T13:14:58.849Z,95571.69
2023-01-14T13:17:35.012Z,95575.13
2023-01-14T13:20:06.687Z,95576.56
2023-01-14T13:22:47.076Z,95557.16
2023-01-14T13:25:36.595Z,95556.69
2023-01-14T13:28:35.287Z,95572.56
2023-01-14T13:31:35.174Z,95578.94
2023-01-14T13:34:39.568Z,95583.94
2023-01-14T13:37:22.368Z,95574.50
2023-01-14T13:39:58.959Z,95573.97
2023-01-14T13:42:39.868Z,95580.34
2023-01-14T13:45:24.673Z,95576.91
2023-01-14T13:47:53.668Z,95528.25
2023-01-14T13:50:26.732Z,95571.06
2023-01-14T13:53:02.377Z,95417.91
2023-01-14T13:55:34.056Z,95568.97
2023-01-14T13:58:06.325Z,95565.44
2023-01-14T14:00:41.538Z,95556.44
2023-01-14T14:03:38.325Z,95570.94
2023-01-14T14:06:51.284Z,95578.41
2023-01-14T14:09:33.071Z,95550.47
2023-01-14T14:12:33.020Z,95569.41
2023-01-14T14:15:04.138Z,95582.91
2023-01-14T14:17:35.712Z,95579.72
2023-01-14T14:20:09.421Z,95570.81
2023-01-14T14:22:43.633Z,95576.97
2023-01-14T14:25:19.287Z,95580.78
2023-01-14T14:27:49.664Z,95505.41
2023-01-14T14:30:32.791Z,95572.03
2023-01-14T14:33:01.694Z,95584.97
2023-01-14T14:35:31.309Z,95581.59
2023-01-14T14:38:01.766Z,95595.91
2023-01-14T14:40:34.902Z,95589.94
2023-01-14T14:43:04.405Z,95579.66
2023-01-14T14:45:33.816Z,95597.84
2023-01-14T14:48:04.089Z,95566.97
2023-01-14T14:50:35.027Z,95571.75
2023-01-14T14:53:03.382Z,95602.59
2023-01-14T14:55:49.437Z,95540.56
2023-01-14T14:58:23.066Z,95557.03
2023-01-14T15:00:55.791Z,95605.47
2023-01-14T15:03:26.225Z,95584.84
2023-01-14T15:05:55.224Z,95605.06
2023-01-14T15:08:29.754Z,95589.88
2023-01-14T15:11:01.607Z,95550.50
2023-01-14T15:13:34.119Z,95437.38
2023-01-14T15:16:10.578Z,95605.97
2023-01-14T15:18:41.184Z,95612.44
2023-01-14T15:21:12.029Z,95619.16
2023-01-14T15:23:44.299Z,95556.22
2023-01-14T15:26:17.263Z,95603.78
2023-01-14T15:28:46.676Z,95598.69
2023-01-14T15:31:25.226Z,95623.59
2023-01-14T15:34:05.280Z,95628.94
2023-01-14T15:36:35.579Z,95620.16
2023-01-14T15:39:04.618Z,95611.81
2023-01-14T15:41:38.261Z,95591.94
2023-01-14T15:44:08.119Z,95609.00
2023-01-14T15:46:36.310Z,95627.25
2023-01-14T15:49:11.582Z,95634.13
2023-01-14T15:51:41.566Z,95582.00
2023-01-14T15:54:23.956Z,95632.53
2023-01-14T15:56:53.264Z,95634.50
2023-01-14T15:59:21.323Z,95645.31
2023-01-14T16:01:54.689Z,95642.50
2023-01-14T16:04:30.001Z,95659.53
2023-01-14T16:07:13.697Z,95579.13
2023-01-14T16:09:42.030Z,95603.25
2023-01-14T16:12:16.467Z,95655.47
2023-01-14T16:14:46.986Z,95651.31
2023-01-14T16:17:17.016Z,95653.56
2023-01-14T16:19:47.799Z,95657.13
2023-01-14T16:22:16.306Z,95661.72
2023-01-14T16:24:45.985Z,95663.91
2023-01-14T16:27:22.203Z,95664.06
2023-01-14T16:29:50.725Z,95452.97
2023-01-14T16:32:18.995Z,95644.16
2023-01-14T16:34:46.995Z,95671.19
2023-01-14T16:37:15.733Z,95659.06
2023-01-14T16:39:43.841Z,95684.06
2023-01-14T16:42:15.876Z,95680.66
2023-01-14T16:44:45.463Z,95630.09
2023-01-14T16:47:15.655Z,95652.13
2023-01-14T16:49:43.660Z,95698.81
2023-01-14T16:52:12.974Z,95692.91
2023-01-14T16:54:40.904Z,95700.06
2023-01-14T16:57:09.148Z,95693.41
2023-01-14T16:59:37.299Z,95700.94
2023-01-14T17:02:09.420Z,95701.44
2023-01-14T17:04:37.395Z,95694.03
2023-01-14T17:07:05.399Z,95681.47
2023-01-14T17:09:34.318Z,95710.16
2023-01-14T17:12:19.497Z,95713.34
2023-01-14T17:14:48.706Z,95706.03
2023-01-14T17:17:18.103Z,95726.78
2023-01-14T17:19:47.649Z,95723.63
2023-01-14T17:22:16.574Z,95719.63
2023-01-14T17:24:45.165Z,95730.09
2023-01-14T17:27:14.833Z,95722.94
2023-01-14T17:29:42.938Z,95733.13
2023-01-14T17:32:10.900Z,95721.53
2023-01-14T17:34:40.351Z,95737.09
2023-01-14T17:37:08.724Z,95731.81
2023-01-14T17:39:37.236Z,95731.31
2023-01-14T17:42:15.343Z,95739.91
2023-01-14T17:44:44.869Z,95743.88
2023-01-14T17:47:15.915Z,95737.22
2023-01-14T17:49:45.343Z,95732.38
2023-01-14T17:52:16.628Z,95747.06
2023-01-14T17:54:45.393Z,95740.41
2023-01-14T17:57:18.640Z,95736.16
2023-01-14T17:59:50.247Z,95734.03
2023-01-14T18:02:19.611Z,95735.09
2023-01-14T18:04:51.736Z,95730.13
2023-01-14T18:07:19.955Z,95734.66
2023-01-14T18:09:47.912Z,95729.91
2023-01-14T18:12:16.207Z,95729.09
2023-01-14T18:14:44.191Z,95732.63
2023-01-14T18:17:12.168Z,95717.81
2023-01-14T18:19:40.275Z,95735.06
2023-01-14T18:22:10.121Z,95743.38
2023-01-14T18:24:38.202Z,95747.63
2023-01-14T18:27:06.236Z,95746.31
2023-01-14T18:29:34.185Z,95748.47
2023-01-14T18:32:02.259Z,95741.78
2023-01-14T18:34:30.283Z,95746.03
2023-01-14T18:36:58.216Z,95751.41
2023-01-14T18:39:27.463Z,95722.72
2023-01-14T18:41:57.597Z,95751.41
2023-01-14T18:44:26.044Z,95751.94
2023-01-14T18:46:54.159Z,95749.78
2023-01-14T18:49:23.259Z,95758.38
2023-01-14T18:51:51.604Z,95755.13
2023-01-14T18:54:19.895Z,95753.56
2023-01-14T18:56:51.116Z,95758.59
2023-01-14T18:59:19.374Z,95749.78
2023-01-14T19:01:47.436Z,95755.69
2023-01-14T19:04:15.428Z,95760.47
2023-01-14T19:06:43.691Z,95764.25
2023-01-14T19:09:12.289Z,95767.44
2023-01-14T19:11:57.549Z,95758.31
2023-01-14T19:14:29.763Z,95232.91
2023-01-14T19:16:58.473Z,95747.69
2023-01-14T19:19:27.379Z,95719.06
2023-01-14T19:21:56.015Z,95759.97
2023-01-14T19:24:24.863Z,95758.91
2023-01-14T19:26:53.284Z,95750.13
2023-01-14T19:29:21.453Z,95760.25
2023-01-14T19:31:51.085Z,95758.66
2023-01-14T19:34:19.119Z,95663.16
2023-01-14T19:36:47.444Z,95749.44
2023-01-14T19:39:16.116Z,95743.56
2023-01-14T19:41:46.969Z,95763.50
2023-01-14T19:44:15.044Z,95775.03
2023-01-14T19:46:43.756Z,95769.19
2023-01-14T19:49:15.645Z,95775.59
2023-01-14T19:51:44.432Z,95755.91
2023-01-14T19:54:13.660Z,95768.66
2023-01-14T19:56:41.871Z,95775.88
2023-01-14T19:59:10.149Z,95706.31
2023-01-14T20:01:39.065Z,95765.47
2023-01-14T20:04:09.546Z,95744.59
2023-01-14T20:06:40.179Z,95729.69
2023-01-14T20:09:11.136Z,95763.94
2023-01-14T20:11:40.130Z,95682.19
2023-01-14T20:14:08.245Z,95762.94
2023-01-14T20:16:36.296Z,95773.00
2023-01-14T20:19:04.796Z,95766.34
2023-01-14T20:21:32.795Z,95749.94
2023-01-14T20:24:02.244Z,95772.28
2023-01-14T20:26:32.335Z,95769.88
2023-01-14T20:29:00.807Z,95783.22
2023-01-14T20:31:31.433Z,95767.31
2023-01-14T20:33:59.947Z,95774.19
2023-01-14T20:36:28.458Z,95778.72
2023-01-14T20:38:57.375Z,95784.06
2023-01-14T20:41:27.309Z,95786.22
2023-01-14T20:43:55.287Z,95794.19
2023-01-14T20:46:27.640Z,95763.38
2023-01-14T20:48:56.272Z,95785.16
2023-01-14T20:51:25.886Z,95754.94
2023-01-14T20:53:54.573Z,95765.25
2023-01-14T20:56:23.581Z,95787.31
2023-01-14T20:59:10.288Z,95793.94
2023-01-14T21:01:38.332Z,95795.56
2023-01-14T21:04:07.362Z,95789.16
2023-01-14T21:06:36.115Z,95787.50
2023-01-14T21:09:04.240Z,95788.56
2023-01-14T21:11:32.671Z,95804.88
2023-01-14T21:14:19.855Z,95804.88
2023-01-14T21:17:05.337Z,95804.63
2023-01-14T21:19:53.787Z,95790.00
2023-01-14T21:22:41.527Z,95803.56
2023-01-14T21:25:11.153Z,95811.06
2023-01-14T21:27:39.446Z,95806.91
2023-01-14T21:30:10.767Z,95790.91
2023-01-14T21:32:40.071Z,95753.19
2023-01-14T21:35:10.863Z,95816.63
2023-01-14T21:37:39.961Z,95823.31
2023-01-14T21:40:10.299Z,95789.63
2023-01-14T21:42:56.500Z,95812.88
2023-01-14T21:45:54.779Z,95810.72
2023-01-14T21:48:15.865Z,95806.22
2023-01-14T21:50:44.420Z,95806.75
2023-01-14T21:53:14.945Z,95812.38
2023-01-14T21:55:44.835Z,95791.44
2023-01-14T21:58:15.328Z,95821.19
2023-01-14T22:00:45.463Z,95820.09
2023-01-14T22:03:13.548Z,95816.91
2023-01-14T22:05:41.991Z,95817.22
2023-01-14T22:08:10.625Z,95814.81
2023-01-14T22:10:39.231Z,95815.31
2023-01-14T22:13:07.905Z,95779.22
2023-01-14T22:15:36.922Z,95804.06
2023-01-14T22:18:06.741Z,95804.63
2023-01-14T22:20:34.971Z,95807.59
2023-01-14T22:23:03.735Z,95804.63
2023-01-14T22:25:31.704Z,95807.25
2023-01-14T22:27:59.759Z,95779.59
2023-01-14T22:30:28.075Z,95801.88
2023-01-14T22:32:56.015Z,95810.13
2023-01-14T22:35:45.776Z,95809.03
2023-01-14T22:38:15.096Z,95795.59
2023-01-14T22:40:43.070Z,95814.44
2023-01-14T22:43:13.798Z,95822.88
2023-01-14T22:45:42.148Z,95820.97
2023-01-14T22:48:10.649Z,95810.88
2023-01-14T22:50:38.942Z,95805.53
2023-01-14T22:53:08.355Z,95812.53
2023-01-14T22:55:36.309Z,95808.31
2023-01-14T22:58:04.257Z,95798.41
2023-01-14T23:00:32.407Z,95792.38
2023-01-14T23:03:02.632Z,95752.03
2023-01-14T23:05:30.718Z,95798.00
2023-01-14T23:08:00.886Z,95800.41
2023-01-14T23:10:30.222Z,95760.59
2023-01-14T23:12:58.262Z,95792.44
2023-01-14T23:15:46.263Z,95797.81
2023-01-14T23:18:13.232Z,95786.09
2023-01-14T23:20:58.636Z,95791.34
2023-01-14T23:23:44.056Z,95790.53
2023-01-14T23:26:13.481Z,95783.03
2023-01-14T23:28:41.413Z,95786.47
2023-01-14T23:31:10.232Z,95781.13
2023-01-14T23:33:38.753Z,95788.06
2023-01-14T23:36:07.225Z,95770.44
2023-01-14T23:38:35.852Z,95783.75
2023-01-14T23:41:08.823Z,95772.84
2023-01-14T23:43:38.367Z,95755.06
2023-01-14T23:46:07.663Z,95769.97
2023-01-14T23:48:35.900Z,95779.34
2023-01-14T23:51:03.957Z,95773.25
2023-01-14T23:53:33.127Z,95701.88
2023-01-14T23:56:03.978Z,95775.66
2023-01-14T23:58:32.823Z,95758.28
